createdAt,value
2022-10-17T00:01:17.201Z,6.15
2022-10-17T00:03:45.075Z,5.53
2022-10-17T00:06:15.096Z,7.28
2022-10-17T00:08:44.078Z,5.35
2022-10-17T00:11:16.593Z,7.50
2022-10-17T00:13:44.741Z,5.70
2022-10-17T00:16:13.189Z,5.57
2022-10-17T00:18:41.420Z,8.40
2022-10-17T00:21:17.200Z,6.95
2022-10-17T00:23:45.105Z,8.82
2022-10-17T00:26:14.948Z,7.20
2022-10-17T00:28:42.856Z,8.85
2022-10-17T00:31:11.773Z,9.60
2022-10-17T00:33:39.958Z,7.60
2022-10-17T00:36:10.669Z,8.73
2022-10-17T00:38:38.662Z,8.45
2022-10-17T00:41:07.807Z,6.63
2022-10-17T00:46:29.783Z,9.45
2022-10-17T00:48:58.635Z,7.40
2022-10-17T00:51:32.191Z,6.38
2022-10-17T00:54:00.979Z,6.78
2022-10-17T00:56:28.937Z,8.60
2022-10-17T00:58:57.064Z,6.07
2022-10-17T01:01:25.032Z,8.05
2022-10-17T01:03:54.385Z,9.07
2022-10-17T01:06:22.181Z,8.15
2022-10-17T01:08:50.075Z,8.80
2022-10-17T01:11:26.269Z,7.72
2022-10-17T01:13:58.222Z,6.38
2022-10-17T01:16:33.158Z,7.20
2022-10-17T01:19:10.758Z,9.40
2022-10-17T01:21:44.691Z,5.57
2022-10-17T01:24:35.105Z,7.53
2022-10-17T01:27:27.576Z,6.93
2022-10-17T01:30:31.170Z,9.25
2022-10-17T01:33:05.730Z,5.45
2022-10-17T01:35:39.455Z,6.50
2022-10-17T01:38:11.478Z,5.47
2022-10-17T01:40:44.483Z,7.70
2022-10-17T01:43:15.144Z,5.65
2022-10-17T01:45:46.886Z,5.65
2022-10-17T01:48:17.647Z,5.05
2022-10-17T01:50:50.740Z,6.45
2022-10-17T01:53:22.597Z,10.20
2022-10-17T01:55:55.420Z,4.80
2022-10-17T01:58:28.036Z,6.60
2022-10-17T02:00:56.942Z,6.00
2022-10-17T02:03:27.177Z,6.05
2022-10-17T02:05:55.211Z,4.95
2022-10-17T02:08:27.758Z,8.60
2022-10-17T02:10:59.009Z,5.43
2022-10-17T02:13:36.621Z,6.88
2022-10-17T02:16:14.028Z,4.50
2022-10-17T02:19:03.909Z,7.47
2022-10-17T02:21:37.094Z,6.38
2022-10-17T02:24:09.934Z,8.02
2022-10-17T02:26:43.439Z,5.53
2022-10-17T02:29:14.894Z,5.65
2022-10-17T02:31:48.028Z,5.38
2022-10-17T02:34:20.968Z,5.35
2022-10-17T02:36:52.072Z,7.50
2022-10-17T02:39:21.191Z,4.72
2022-10-17T02:41:49.578Z,6.60
2022-10-17T02:44:18.186Z,6.82
2022-10-17T02:46:56.084Z,5.78
2022-10-17T02:49:29.530Z,5.20
2022-10-17T02:52:03.104Z,6.38
2022-10-17T02:54:35.519Z,8.13
2022-10-17T02:57:09.217Z,5.13
2022-10-17T02:59:38.009Z,8.05
2022-10-17T03:02:06.836Z,8.45
2022-10-17T03:04:36.008Z,5.15
2022-10-17T03:07:03.942Z,5.32
2022-10-17T03:09:31.812Z,6.32
2022-10-17T03:11:59.601Z,5.57
2022-10-17T03:14:27.548Z,6.00
2022-10-17T03:16:55.465Z,8.55
2022-10-17T03:19:23.409Z,6.05
2022-10-17T03:21:53.187Z,5.80
2022-10-17T03:24:21.156Z,4.78
2022-10-17T03:26:49.125Z,5.35
2022-10-17T03:29:16.990Z,6.07
2022-10-17T03:31:44.965Z,5.38
2022-10-17T03:34:12.906Z,5.60
2022-10-17T03:36:40.735Z,5.38
2022-10-17T03:39:10.231Z,5.47
2022-10-17T03:41:38.839Z,3.85
2022-10-17T03:44:06.640Z,4.35
2022-10-17T03:46:34.714Z,5.70
2022-10-17T03:49:02.588Z,6.80
2022-10-17T03:51:31.053Z,4.25
2022-10-17T03:54:03.988Z,7.80
2022-10-17T03:56:33.201Z,5.93
2022-10-17T03:59:05.108Z,5.50
2022-10-17T04:01:36.096Z,3.85
2022-10-17T04:04:04.016Z,5.55
2022-10-17T04:06:34.870Z,4.30
2022-10-17T04:09:03.017Z,5.40
2022-10-17T04:11:39.951Z,5.30
2022-10-17T04:14:08.487Z,5.53
2022-10-17T04:16:38.516Z,7.47
2022-10-17T04:19:13.951Z,7.30
2022-10-17T04:21:45.922Z,7.07
2022-10-17T04:24:15.079Z,10.93
2022-10-17T04:26:47.214Z,9.38
2022-10-17T04:29:16.204Z,6.45
2022-10-17T04:31:45.998Z,6.13
2022-10-17T04:34:21.462Z,6.28
2022-10-17T04:36:49.393Z,6.00
2022-10-17T04:39:17.888Z,6.70
2022-10-17T04:41:48.140Z,3.28
2022-10-17T04:44:16.273Z,4.45
2022-10-17T04:46:50.278Z,8.05
2022-10-17T04:49:18.363Z,10.65
2022-10-17T04:51:49.469Z,3.60
2022-10-17T04:54:20.651Z,5.43
2022-10-17T04:56:54.890Z,3.92
2022-10-17T04:59:22.941Z,3.53
2022-10-17T05:01:58.317Z,6.00
2022-10-17T05:04:27.007Z,6.32
2022-10-17T05:06:54.958Z,6.05
2022-10-17T05:09:43.053Z,6.35
2022-10-17T05:12:13.013Z,5.80
2022-10-17T05:14:44.345Z,5.45
2022-10-17T05:17:12.317Z,7.63
2022-10-17T05:19:40.317Z,5.68
2022-10-17T05:22:09.726Z,7.13
2022-10-17T05:24:37.644Z,3.65
2022-10-17T05:27:05.502Z,5.40
2022-10-17T05:29:35.552Z,5.78
2022-10-17T05:32:10.788Z,5.25
2022-10-17T05:34:39.259Z,5.20
2022-10-17T05:37:07.150Z,8.40
2022-10-17T05:39:35.336Z,6.68
2022-10-17T05:42:05.419Z,4.43
2022-10-17T05:44:36.008Z,4.57
2022-10-17T05:47:04.076Z,6.80
2022-10-17T05:49:43.921Z,4.18
2022-10-17T05:52:15.146Z,7.32
2022-10-17T05:55:07.400Z,4.50
2022-10-17T05:57:35.339Z,5.07
2022-10-17T06:00:11.006Z,4.63
2022-10-17T06:02:50.830Z,4.75
2022-10-17T06:05:21.025Z,6.50
2022-10-17T06:07:50.138Z,5.65
2022-10-17T06:10:18.641Z,4.60
2022-10-17T06:12:46.872Z,5.72
2022-10-17T06:15:17.412Z,8.63
2022-10-17T06:17:49.574Z,4.18
2022-10-17T06:20:17.561Z,5.20
2022-10-17T06:22:45.444Z,5.88
2022-10-17T06:25:19.078Z,5.45
2022-10-17T06:27:47.028Z,3.40
2022-10-17T06:30:19.254Z,6.90
2022-10-17T06:32:47.140Z,4.32
2022-10-17T06:35:15.160Z,4.82
2022-10-17T06:37:43.076Z,7.22
2022-10-17T06:40:12.301Z,7.40
2022-10-17T06:42:41.140Z,4.95
2022-10-17T06:45:25.368Z,5.28
2022-10-17T06:47:58.179Z,7.60
2022-10-17T06:50:45.230Z,4.13
2022-10-17T06:53:24.976Z,8.23
2022-10-17T06:56:11.571Z,6.20
2022-10-17T06:58:49.460Z,4.75
2022-10-17T07:01:28.629Z,5.80
2022-10-17T07:03:59.437Z,4.05
2022-10-17T07:06:27.638Z,3.08
2022-10-17T07:08:57.508Z,3.95
2022-10-17T07:11:25.860Z,3.75
2022-10-17T07:13:54.097Z,3.38
2022-10-17T07:16:23.610Z,3.72
2022-10-17T07:19:01.289Z,7.65
2022-10-17T07:21:38.164Z,5.85
2022-10-17T07:24:08.347Z,7.30
2022-10-17T07:26:36.281Z,7.60
2022-10-17T07:29:06.360Z,6.72
2022-10-17T07:31:49.863Z,4.10
2022-10-17T07:34:19.143Z,5.43
2022-10-17T07:36:46.954Z,5.10
2022-10-17T07:39:16.838Z,4.18
2022-10-17T07:41:47.536Z,6.53
2022-10-17T07:44:15.789Z,8.00
2022-10-17T07:46:48.435Z,8.15
2022-10-17T07:49:17.334Z,6.97
2022-10-17T07:54:19.178Z,7.18
2022-10-17T07:56:50.440Z,6.03
2022-10-17T07:59:18.920Z,6.50
2022-10-17T08:01:46.937Z,5.63
2022-10-17T08:04:16.718Z,9.05
2022-10-17T08:06:45.840Z,7.38
2022-10-17T08:09:13.708Z,4.82
2022-10-17T08:11:43.749Z,7.10
2022-10-17T08:14:11.998Z,8.15
2022-10-17T08:16:39.935Z,6.88
2022-10-17T08:21:41.613Z,8.75
2022-10-17T08:24:11.234Z,7.18
2022-10-17T08:26:42.363Z,5.28
2022-10-17T08:29:14.379Z,5.47
2022-10-17T08:31:46.457Z,5.15
2022-10-17T08:34:15.846Z,5.50
2022-10-17T08:36:43.686Z,3.20
2022-10-17T08:39:12.896Z,3.65
2022-10-17T08:41:49.164Z,4.75
2022-10-17T08:44:28.580Z,4.80
2022-10-17T08:46:58.962Z,4.40
2022-10-17T08:49:31.071Z,7.28
2022-10-17T08:52:03.658Z,4.28
2022-10-17T08:54:40.388Z,2.70
2022-10-17T08:57:12.411Z,3.65
2022-10-17T08:59:40.227Z,5.75
2022-10-17T09:02:22.565Z,5.68
2022-10-17T09:05:01.738Z,4.93
2022-10-17T09:07:35.208Z,3.05
2022-10-17T09:10:11.664Z,5.25
2022-10-17T09:12:42.772Z,6.18
2022-10-17T09:15:49.009Z,6.95
2022-10-17T09:18:21.205Z,6.68
2022-10-17T09:20:53.452Z,4.47
2022-10-17T09:23:23.550Z,3.65
2022-10-17T09:25:55.538Z,4.45
2022-10-17T09:28:27.145Z,3.90
2022-10-17T09:30:58.058Z,4.07
2022-10-17T09:33:35.280Z,6.75
2022-10-17T09:36:05.683Z,6.68
2022-10-17T09:38:39.423Z,7.72
2022-10-17T09:41:43.035Z,4.57
2022-10-17T09:44:15.560Z,5.03
2022-10-17T09:46:46.046Z,4.35
2022-10-17T09:49:17.258Z,4.60
2022-10-17T09:51:45.369Z,2.53
2022-10-17T09:54:19.299Z,12.23
2022-10-17T09:57:07.018Z,5.65
2022-10-17T09:59:36.757Z,5.47
2022-10-17T10:02:18.178Z,6.50
2022-10-17T10:05:16.237Z,3.90
2022-10-17T10:07:44.894Z,5.28
2022-10-17T10:10:26.236Z,3.22
2022-10-17T10:13:08.685Z,7.05
2022-10-17T10:15:40.935Z,4.65
2022-10-17T10:18:31.962Z,6.10
2022-10-17T10:21:06.977Z,3.08
2022-10-17T10:23:39.890Z,5.75
2022-10-17T10:26:21.091Z,5.05
2022-10-17T10:28:58.638Z,8.63
2022-10-17T10:31:35.612Z,6.57
2022-10-17T10:34:15.601Z,7.80
2022-10-17T10:36:50.710Z,5.78
2022-10-17T10:39:32.565Z,6.45
2022-10-17T10:42:01.257Z,2.63
2022-10-17T10:44:32.272Z,5.57
2022-10-17T10:47:15.761Z,5.15
2022-10-17T10:49:44.035Z,5.85
2022-10-17T10:52:17.012Z,4.18
2022-10-17T10:54:51.414Z,5.32
2022-10-17T10:57:22.538Z,5.07
2022-10-17T11:00:09.604Z,5.55
2022-10-17T11:02:41.326Z,2.88
2022-10-17T11:05:13.675Z,3.72
2022-10-17T11:07:44.850Z,4.07
2022-10-17T11:10:16.248Z,6.05
2022-10-17T11:12:47.442Z,2.90
2022-10-17T11:15:21.862Z,6.07
2022-10-17T11:17:57.901Z,3.80
2022-10-17T11:20:31.758Z,5.45
2022-10-17T11:23:06.115Z,5.30
2022-10-17T11:25:35.873Z,4.72
2022-10-17T11:28:05.287Z,7.47
2022-10-17T11:33:21.636Z,5.47
2022-10-17T11:35:51.165Z,7.80
2022-10-17T11:38:23.446Z,5.28
2022-10-17T11:40:53.041Z,6.97
2022-10-17T11:43:23.323Z,5.78
2022-10-17T11:45:56.407Z,5.57
2022-10-17T11:48:26.781Z,6.45
2022-10-17T11:53:49.495Z,3.45
2022-10-17T11:56:21.006Z,5.47
2022-10-17T11:58:53.713Z,6.45
2022-10-17T12:01:28.517Z,4.97
2022-10-17T12:04:08.650Z,3.83
2022-10-17T12:06:49.271Z,5.18
2022-10-17T12:09:24.158Z,6.13
2022-10-17T12:11:54.939Z,4.07
2022-10-17T12:14:41.468Z,5.78
2022-10-17T12:17:41.002Z,7.18
2022-10-17T12:20:31.573Z,7.90
2022-10-17T12:23:04.725Z,5.63
2022-10-17T12:25:34.235Z,7.82
2022-10-17T12:28:13.665Z,7.72
2022-10-17T12:30:52.364Z,3.97
2022-10-17T12:33:23.945Z,5.80
2022-10-17T12:35:52.900Z,5.15
2022-10-17T12:38:26.062Z,5.55
2022-10-17T12:41:07.536Z,4.50
2022-10-17T12:43:48.329Z,6.50
2022-10-17T12:46:55.331Z,6.55
2022-10-17T12:49:38.805Z,7.63
2022-10-17T12:52:29.525Z,4.80
2022-10-17T12:55:12.161Z,2.30
2022-10-17T12:57:55.476Z,5.75
2022-10-17T13:00:28.408Z,6.93
2022-10-17T13:02:58.177Z,5.78
2022-10-17T13:05:32.544Z,5.78
2022-10-17T13:08:02.165Z,3.55
2022-10-17T13:10:32.273Z,8.93
2022-10-17T13:13:07.352Z,9.57
2022-10-17T13:15:35.978Z,3.83
2022-10-17T13:18:03.700Z,9.57
2022-10-17T13:20:33.533Z,6.55
2022-10-17T13:23:01.380Z,2.80
2022-10-17T13:25:29.581Z,7.53
2022-10-17T13:28:12.120Z,6.07
2022-10-17T13:30:39.898Z,7.50
2022-10-17T13:33:22.557Z,4.88
2022-10-17T13:36:06.932Z,5.65
2022-10-17T13:38:36.786Z,7.13
2022-10-17T13:41:34.277Z,7.63
2022-10-17T13:44:02.690Z,5.03
2022-10-17T13:46:37.840Z,9.95
2022-10-17T13:49:17.227Z,6.40
2022-10-17T13:51:48.855Z,6.78
2022-10-17T13:54:30.425Z,3.58
2022-10-17T13:56:58.445Z,8.63
2022-10-17T13:59:31.272Z,5.53
2022-10-17T14:02:01.560Z,8.00
2022-10-17T14:04:39.996Z,5.18
2022-10-17T14:07:25.618Z,6.55
2022-10-17T14:09:53.396Z,3.05
2022-10-17T14:12:21.616Z,7.80
2022-10-17T14:15:09.872Z,6.95
2022-10-17T14:17:38.585Z,9.52
2022-10-17T14:20:40.698Z,7.55
2022-10-17T14:23:21.401Z,4.40
2022-10-17T14:25:45.989Z,5.90
2022-10-17T14:28:16.791Z,5.72
2022-10-17T14:31:01.156Z,7.15
2022-10-17T14:33:30.712Z,4.97
2022-10-17T14:36:00.167Z,12.07
2022-10-17T14:38:30.334Z,7.47
2022-10-17T14:41:23.298Z,6.20
2022-10-17T14:43:54.368Z,7.53
2022-10-17T14:46:22.267Z,5.43
2022-10-17T14:48:54.636Z,7.45
2022-10-17T14:51:22.409Z,4.82
2022-10-17T14:54:20.810Z,6.00
2022-10-17T14:56:51.707Z,5.93
2022-10-17T14:59:51.745Z,9.57
2022-10-17T15:02:10.237Z,5.55
2022-10-17T15:04:37.997Z,6.40
2022-10-17T15:07:06.082Z,7.15
2022-10-17T15:09:35.188Z,5.30
2022-10-17T15:12:03.517Z,5.88
2022-10-17T15:14:31.304Z,5.97
2022-10-17T15:16:59.048Z,6.78
2022-10-17T15:19:26.784Z,5.47
2022-10-17T15:21:54.529Z,5.43
2022-10-17T15:24:22.291Z,6.57
2022-10-17T15:26:51.460Z,9.75
2022-10-17T15:29:19.238Z,8.52
2022-10-17T15:31:47.004Z,7.10
2022-10-17T15:34:14.802Z,7.78
2022-10-17T15:36:43.886Z,6.72
2022-10-17T15:39:11.736Z,7.40
2022-10-17T15:41:39.541Z,7.07
2022-10-17T15:44:08.661Z,7.53
2022-10-17T15:46:36.684Z,6.78
2022-10-17T15:49:07.469Z,7.25
2022-10-17T15:51:35.473Z,5.85
2022-10-17T15:54:03.305Z,8.82
2022-10-17T15:56:35.787Z,10.95
2022-10-17T15:59:04.249Z,9.10
2022-10-17T16:01:34.617Z,9.63
2022-10-17T16:04:02.454Z,10.35
2022-10-17T16:06:30.418Z,7.50
2022-10-17T16:08:58.198Z,7.55
2022-10-17T16:11:29.773Z,10.95
2022-10-17T16:14:00.384Z,8.77
2022-10-17T16:16:29.915Z,9.85
2022-10-17T16:18:59.538Z,5.72
2022-10-17T16:24:02.657Z,6.03
2022-10-17T16:26:30.467Z,6.85
2022-10-17T16:29:02.560Z,7.47
2022-10-17T16:31:32.798Z,9.38
2022-10-17T16:34:03.398Z,13.15
2022-10-17T16:36:31.253Z,8.32
2022-10-17T16:38:59.227Z,8.77
2022-10-17T16:41:29.013Z,7.93
2022-10-17T16:43:59.108Z,9.30
2022-10-17T16:46:28.084Z,9.10
2022-10-17T16:48:56.104Z,8.15
2022-10-17T16:51:25.645Z,11.82
2022-10-17T16:53:54.452Z,10.07
2022-10-17T16:56:23.509Z,11.20
2022-10-17T16:58:51.827Z,13.25
2022-10-17T17:01:23.081Z,10.07
2022-10-17T17:03:51.426Z,12.23
2022-10-17T17:06:20.759Z,8.60
2022-10-17T17:08:49.908Z,10.38
2022-10-17T17:11:19.422Z,12.13
2022-10-17T17:13:47.777Z,12.25
2022-10-17T17:16:17.078Z,8.60
2022-10-17T17:18:45.996Z,15.18
2022-10-17T17:21:14.395Z,10.85
2022-10-17T17:23:43.343Z,11.00
2022-10-17T17:26:13.769Z,10.43
2022-10-17T17:28:42.324Z,15.15
2022-10-17T17:31:11.320Z,12.77
2022-10-17T17:33:40.236Z,12.68
2022-10-17T17:36:08.853Z,15.32
2022-10-17T17:38:37.301Z,13.52
2022-10-17T17:41:05.529Z,12.85
2022-10-17T17:43:34.879Z,12.70
2022-10-17T17:46:03.057Z,10.65
2022-10-17T17:48:30.865Z,11.93
2022-10-17T17:50:58.633Z,13.88
2022-10-17T17:53:26.397Z,13.55
2022-10-17T17:56:02.422Z,14.00
2022-10-17T17:58:30.178Z,11.15
2022-10-17T18:00:59.484Z,9.52
2022-10-17T18:03:27.658Z,12.00
2022-10-17T18:05:55.516Z,13.23
2022-10-17T18:08:23.293Z,9.77
2022-10-17T18:10:54.413Z,11.35
2022-10-17T18:13:22.155Z,9.57
2022-10-17T18:15:51.867Z,12.32
2022-10-17T18:18:21.034Z,10.10
2022-10-17T18:20:48.767Z,12.68
2022-10-17T18:23:17.766Z,10.70
2022-10-17T18:25:54.493Z,10.77
2022-10-17T18:28:22.307Z,13.55
2022-10-17T18:30:50.422Z,12.10
2022-10-17T18:33:18.222Z,9.88
2022-10-17T18:35:47.576Z,11.75
2022-10-17T18:38:15.317Z,12.00
2022-10-17T18:40:45.076Z,12.90
2022-10-17T18:43:15.037Z,11.20
2022-10-17T18:45:42.791Z,12.85
2022-10-17T18:48:10.498Z,10.13
2022-10-17T18:50:39.868Z,15.60
2022-10-17T18:53:09.016Z,11.57
2022-10-17T18:55:40.063Z,12.20
2022-10-17T18:58:07.911Z,12.18
2022-10-17T19:00:35.733Z,10.45
2022-10-17T19:03:04.153Z,14.25
2022-10-17T19:05:33.938Z,11.02
2022-10-17T19:08:01.757Z,10.65
2022-10-17T19:10:30.875Z,10.10
2022-10-17T19:12:58.685Z,11.35
2022-10-17T19:15:26.620Z,12.23
2022-10-17T19:17:54.382Z,11.43
2022-10-17T19:20:22.225Z,11.75
2022-10-17T19:22:50.061Z,12.80
2022-10-17T19:25:17.933Z,11.90
2022-10-17T19:27:47.102Z,11.55
2022-10-17T19:30:14.839Z,11.85
2022-10-17T19:32:42.578Z,9.68
2022-10-17T19:35:12.265Z,7.70
2022-10-17T19:37:39.972Z,8.00
2022-10-17T19:40:09.227Z,5.88
2022-10-17T19:42:37.000Z,6.13
2022-10-17T19:45:07.621Z,9.10
2022-10-17T19:47:35.400Z,9.80
2022-10-17T19:52:32.247Z,7.57
2022-10-17T19:55:00.237Z,7.28
2022-10-17T19:57:27.952Z,9.68
2022-10-17T19:59:56.208Z,9.50
2022-10-17T20:02:25.469Z,10.88
2022-10-17T20:05:00.242Z,7.35
2022-10-17T20:07:40.799Z,8.65
2022-10-17T20:10:09.238Z,10.25
2022-10-17T20:12:36.969Z,9.65
2022-10-17T20:15:06.005Z,9.52
2022-10-17T20:20:09.069Z,8.13
2022-10-17T20:22:36.849Z,6.82
2022-10-17T20:25:04.829Z,9.73
2022-10-17T20:27:32.579Z,6.03
2022-10-17T20:30:01.835Z,10.85
2022-10-17T20:32:31.588Z,5.93
2022-10-17T20:35:01.129Z,5.28
2022-10-17T20:37:29.078Z,7.20
2022-10-17T20:40:22.766Z,5.65
2022-10-17T20:42:44.676Z,6.68
2022-10-17T20:45:12.666Z,6.40
2022-10-17T20:47:47.050Z,9.68
2022-10-17T20:50:17.354Z,6.53
2022-10-17T20:52:45.134Z,6.50
2022-10-17T20:55:12.909Z,6.57
2022-10-17T20:57:40.733Z,6.20
2022-10-17T21:00:09.709Z,5.63
2022-10-17T21:02:37.478Z,6.70
2022-10-17T21:05:05.802Z,6.68
2022-10-17T21:07:34.937Z,7.68
2022-10-17T21:10:17.629Z,6.00
2022-10-17T21:12:54.298Z,5.15
2022-10-17T21:15:22.377Z,4.80
2022-10-17T21:17:50.121Z,5.70
2022-10-17T21:20:18.229Z,7.25
2022-10-17T21:22:47.388Z,5.80
2022-10-17T21:25:15.364Z,6.85
2022-10-17T21:27:43.146Z,6.65
2022-10-17T21:30:11.813Z,9.23
2022-10-17T21:32:55.048Z,9.30
2022-10-17T21:35:23.202Z,6.93
2022-10-17T21:37:52.296Z,5.65
2022-10-17T21:40:20.061Z,5.95
2022-10-17T21:42:47.824Z,7.35
2022-10-17T21:45:25.138Z,8.30
2022-10-17T21:48:12.193Z,7.07
2022-10-17T21:50:41.146Z,6.93
2022-10-17T21:53:10.649Z,6.20
2022-10-17T21:55:38.669Z,8.30
2022-10-17T21:58:06.405Z,8.05
2022-10-17T22:00:34.268Z,7.22
2022-10-17T22:03:02.134Z,10.85
2022-10-17T22:05:31.684Z,6.80
2022-10-17T22:07:59.821Z,8.13
2022-10-17T22:10:28.921Z,7.55
2022-10-17T22:12:56.693Z,10.32
2022-10-17T22:15:24.466Z,9.93
2022-10-17T22:17:52.224Z,8.73
2022-10-17T22:20:19.974Z,8.10
2022-10-17T22:22:47.845Z,8.35
2022-10-17T22:25:15.665Z,11.18
2022-10-17T22:27:44.809Z,7.40
2022-10-17T22:30:13.025Z,12.57
2022-10-17T22:32:40.786Z,9.63
2022-10-17T22:35:09.209Z,9.20
2022-10-17T22:37:37.004Z,9.07
2022-10-17T22:40:05.625Z,9.65
2022-10-17T22:42:34.616Z,8.38
2022-10-17T22:45:03.900Z,6.90
2022-10-17T22:47:32.554Z,7.45
2022-10-17T22:50:00.387Z,6.90
2022-10-17T22:52:28.292Z,7.20
2022-10-17T22:54:56.185Z,10.40
2022-10-17T22:57:23.935Z,9.15
2022-10-17T22:59:51.713Z,6.90
2022-10-17T23:02:20.893Z,7.55
2022-10-17T23:04:48.673Z,5.07
2022-10-17T23:07:16.449Z,4.97
2022-10-17T23:09:44.546Z,6.30
2022-10-17T23:12:12.298Z,7.57
2022-10-17T23:14:43.160Z,6.18
2022-10-17T23:17:11.452Z,4.43
2022-10-17T23:19:40.948Z,5.68
2022-10-17T23:22:09.650Z,5.35
2022-10-17T23:24:37.574Z,5.50
2022-10-17T23:27:05.389Z,4.80
2022-10-17T23:29:33.729Z,5.35
2022-10-17T23:32:01.970Z,8.02
2022-10-17T23:34:30.405Z,4.38
2022-10-17T23:36:59.762Z,6.50
2022-10-17T23:39:27.569Z,9.10
2022-10-17T23:41:55.352Z,4.60
2022-10-17T23:44:23.506Z,5.90
2022-10-17T23:46:51.320Z,6.75
2022-10-17T23:49:19.077Z,6.20
2022-10-17T23:51:46.910Z,5.05
2022-10-17T23:54:16.305Z,5.90
2022-10-17T23:56:44.050Z,6.25
2022-10-17T23:59:12.036Z,6.43
